sensor_id;sensor_type;location;lat;lon;timestamp;temperature;humidity
41720;DHT22;27405;53.316;-6.294;2023-06-22T00:02:17;18.80;71.50
41720;DHT22;27405;53.316;-6.294;2023-06-22T00:04:43;18.80;71.70
41720;DHT22;27405;53.316;-6.294;2023-06-22T00:07:09;18.80;71.80
41720;DHT22;27405;53.316;-6.294;2023-06-22T00:09:35;18.80;71.70
41720;DHT22;27405;53.316;-6.294;2023-06-22T00:12:01;18.80;71.70
41720;DHT22;27405;53.316;-6.294;2023-06-22T00:14:27;18.70;71.40
41720;DHT22;27405;53.316;-6.294;2023-06-22T00:16:52;18.70;71.40
41720;DHT22;27405;53.316;-6.294;2023-06-22T00:19:23;18.70;71.60
41720;DHT22;27405;53.316;-6.294;2023-06-22T00:21:50;18.60;71.80
41720;DHT22;27405;53.316;-6.294;2023-06-22T00:24:21;18.60;72.00
41720;DHT22;27405;53.316;-6.294;2023-06-22T00:26:48;18.50;72.30
41720;DHT22;27405;53.316;-6.294;2023-06-22T00:29:14;18.50;72.30
41720;DHT22;27405;53.316;-6.294;2023-06-22T00:31:40;18.50;72.40
41720;DHT22;27405;53.316;-6.294;2023-06-22T00:34:05;18.40;72.30
41720;DHT22;27405;53.316;-6.294;2023-06-22T00:36:34;18.40;73.10
41720;DHT22;27405;53.316;-6.294;2023-06-22T00:39:00;18.40;72.80
41720;DHT22;27405;53.316;-6.294;2023-06-22T00:41:26;18.30;72.90
41720;DHT22;27405;53.316;-6.294;2023-06-22T00:43:54;18.40;73.20
41720;DHT22;27405;53.316;-6.294;2023-06-22T00:46:20;18.30;73.10
41720;DHT22;27405;53.316;-6.294;2023-06-22T00:48:46;18.20;73.10
41720;DHT22;27405;53.316;-6.294;2023-06-22T00:51:12;18.20;73.30
41720;DHT22;27405;53.316;-6.294;2023-06-22T00:53:38;18.10;73.60
41720;DHT22;27405;53.316;-6.294;2023-06-22T00:56:04;18.10;74.00
41720;DHT22;27405;53.316;-6.294;2023-06-22T00:58:31;18.10;74.20
41720;DHT22;27405;53.316;-6.294;2023-06-22T01:00:57;18.00;74.30
41720;DHT22;27405;53.316;-6.294;2023-06-22T01:03:22;18.00;74.40
41720;DHT22;27405;53.316;-6.294;2023-06-22T01:05:50;18.00;74.40
41720;DHT22;27405;53.316;-6.294;2023-06-22T01:08:29;17.90;74.50
41720;DHT22;27405;53.316;-6.294;2023-06-22T01:11:09;17.90;74.60
41720;DHT22;27405;53.316;-6.294;2023-06-22T01:13:45;17.90;74.80
41720;DHT22;27405;53.316;-6.294;2023-06-22T01:16:16;17.90;75.60
41720;DHT22;27405;53.316;-6.294;2023-06-22T01:18:44;17.80;75.20
41720;DHT22;27405;53.316;-6.294;2023-06-22T01:21:14;17.80;75.20
41720;DHT22;27405;53.316;-6.294;2023-06-22T01:29:52;17.70;75.60
41720;DHT22;27405;53.316;-6.294;2023-06-22T01:32:21;17.70;75.90
41720;DHT22;27405;53.316;-6.294;2023-06-22T01:34:47;17.60;75.80
41720;DHT22;27405;53.316;-6.294;2023-06-22T01:37:14;17.70;76.10
41720;DHT22;27405;53.316;-6.294;2023-06-22T01:39:41;17.60;76.20
41720;DHT22;27405;53.316;-6.294;2023-06-22T01:42:07;17.60;76.30
41720;DHT22;27405;53.316;-6.294;2023-06-22T01:44:33;17.60;76.50
41720;DHT22;27405;53.316;-6.294;2023-06-22T01:46:59;17.60;76.50
41720;DHT22;27405;53.316;-6.294;2023-06-22T01:49:25;17.60;76.70
41720;DHT22;27405;53.316;-6.294;2023-06-22T01:51:51;17.60;76.60
41720;DHT22;27405;53.316;-6.294;2023-06-22T01:54:17;17.50;76.70
41720;DHT22;27405;53.316;-6.294;2023-06-22T01:56:42;17.50;76.90
41720;DHT22;27405;53.316;-6.294;2023-06-22T01:59:34;17.50;77.10
41720;DHT22;27405;53.316;-6.294;2023-06-22T02:02:07;17.50;77.50
41720;DHT22;27405;53.316;-6.294;2023-06-22T02:04:38;17.40;77.50
41720;DHT22;27405;53.316;-6.294;2023-06-22T02:07:11;17.40;77.80
41720;DHT22;27405;53.316;-6.294;2023-06-22T02:09:39;17.40;77.90
41720;DHT22;27405;53.316;-6.294;2023-06-22T02:12:08;17.30;78.10
41720;DHT22;27405;53.316;-6.294;2023-06-22T02:14:36;17.30;78.20
41720;DHT22;27405;53.316;-6.294;2023-06-22T02:17:02;17.30;78.40
41720;DHT22;27405;53.316;-6.294;2023-06-22T02:19:30;17.20;78.60
41720;DHT22;27405;53.316;-6.294;2023-06-22T02:21:58;17.20;78.90
41720;DHT22;27405;53.316;-6.294;2023-06-22T02:24:25;17.20;79.10
41720;DHT22;27405;53.316;-6.294;2023-06-22T02:26:51;17.20;79.30
41720;DHT22;27405;53.316;-6.294;2023-06-22T02:29:17;17.20;79.40
41720;DHT22;27405;53.316;-6.294;2023-06-22T02:31:43;17.20;79.50
41720;DHT22;27405;53.316;-6.294;2023-06-22T02:34:08;17.10;79.70
41720;DHT22;27405;53.316;-6.294;2023-06-22T02:36:34;17.20;79.90
41720;DHT22;27405;53.316;-6.294;2023-06-22T02:39:00;17.20;80.00
41720;DHT22;27405;53.316;-6.294;2023-06-22T02:41:27;17.20;80.10
41720;DHT22;27405;53.316;-6.294;2023-06-22T02:43:53;17.10;80.30
41720;DHT22;27405;53.316;-6.294;2023-06-22T02:46:18;17.10;80.50
41720;DHT22;27405;53.316;-6.294;2023-06-22T02:48:44;17.10;80.60
41720;DHT22;27405;53.316;-6.294;2023-06-22T02:51:10;17.00;80.50
41720;DHT22;27405;53.316;-6.294;2023-06-22T02:53:35;17.00;80.50
41720;DHT22;27405;53.316;-6.294;2023-06-22T02:56:04;17.00;80.60
41720;DHT22;27405;53.316;-6.294;2023-06-22T02:58:33;16.90;80.70
41720;DHT22;27405;53.316;-6.294;2023-06-22T03:01:04;16.90;80.70
41720;DHT22;27405;53.316;-6.294;2023-06-22T03:03:31;16.90;80.90
41720;DHT22;27405;53.316;-6.294;2023-06-22T03:05:56;16.80;81.00
41720;DHT22;27405;53.316;-6.294;2023-06-22T03:08:22;16.80;81.20
41720;DHT22;27405;53.316;-6.294;2023-06-22T03:10:48;16.80;81.20
41720;DHT22;27405;53.316;-6.294;2023-06-22T03:13:14;16.80;81.10
41720;DHT22;27405;53.316;-6.294;2023-06-22T03:15:39;16.70;81.10
41720;DHT22;27405;53.316;-6.294;2023-06-22T03:18:05;16.70;81.20
41720;DHT22;27405;53.316;-6.294;2023-06-22T03:20:30;16.70;81.50
41720;DHT22;27405;53.316;-6.294;2023-06-22T03:22:59;16.60;81.50
41720;DHT22;27405;53.316;-6.294;2023-06-22T03:25:25;16.60;81.60
41720;DHT22;27405;53.316;-6.294;2023-06-22T03:27:51;16.60;81.90
41720;DHT22;27405;53.316;-6.294;2023-06-22T03:30:16;16.60;82.00
41720;DHT22;27405;53.316;-6.294;2023-06-22T03:32:42;16.50;82.20
41720;DHT22;27405;53.316;-6.294;2023-06-22T03:35:09;16.50;82.30
41720;DHT22;27405;53.316;-6.294;2023-06-22T03:37:35;16.50;82.50
41720;DHT22;27405;53.316;-6.294;2023-06-22T03:40:01;16.50;82.70
41720;DHT22;27405;53.316;-6.294;2023-06-22T03:42:30;16.50;82.80
41720;DHT22;27405;53.316;-6.294;2023-06-22T03:44:56;16.40;83.00
41720;DHT22;27405;53.316;-6.294;2023-06-22T03:47:22;16.40;83.20
41720;DHT22;27405;53.316;-6.294;2023-06-22T03:49:48;16.30;83.40
41720;DHT22;27405;53.316;-6.294;2023-06-22T03:52:14;16.30;83.60
41720;DHT22;27405;53.316;-6.294;2023-06-22T03:54:40;16.30;83.90
41720;DHT22;27405;53.316;-6.294;2023-06-22T03:57:05;16.20;84.00
41720;DHT22;27405;53.316;-6.294;2023-06-22T03:59:31;16.20;84.20
41720;DHT22;27405;53.316;-6.294;2023-06-22T04:01:57;16.10;84.40
41720;DHT22;27405;53.316;-6.294;2023-06-22T04:04:23;16.10;84.60
41720;DHT22;27405;53.316;-6.294;2023-06-22T04:06:49;16.10;84.70
41720;DHT22;27405;53.316;-6.294;2023-06-22T04:09:14;16.10;84.80
41720;DHT22;27405;53.316;-6.294;2023-06-22T04:11:40;16.10;85.00
41720;DHT22;27405;53.316;-6.294;2023-06-22T04:14:06;16.10;85.10
41720;DHT22;27405;53.316;-6.294;2023-06-22T04:16:31;16.10;85.30
41720;DHT22;27405;53.316;-6.294;2023-06-22T04:18:57;16.10;85.40
41720;DHT22;27405;53.316;-6.294;2023-06-22T04:21:22;16.10;85.70
41720;DHT22;27405;53.316;-6.294;2023-06-22T04:23:48;16.10;85.80
41720;DHT22;27405;53.316;-6.294;2023-06-22T04:26:14;16.00;85.80
41720;DHT22;27405;53.316;-6.294;2023-06-22T04:28:40;16.10;86.10
41720;DHT22;27405;53.316;-6.294;2023-06-22T04:31:06;16.10;86.10
41720;DHT22;27405;53.316;-6.294;2023-06-22T04:33:32;16.00;86.10
41720;DHT22;27405;53.316;-6.294;2023-06-22T04:35:58;16.10;86.40
41720;DHT22;27405;53.316;-6.294;2023-06-22T04:38:26;16.10;86.40
41720;DHT22;27405;53.316;-6.294;2023-06-22T04:40:52;16.00;86.60
41720;DHT22;27405;53.316;-6.294;2023-06-22T04:43:19;16.00;86.70
41720;DHT22;27405;53.316;-6.294;2023-06-22T04:45:45;16.10;86.90
41720;DHT22;27405;53.316;-6.294;2023-06-22T04:48:10;16.00;87.00
41720;DHT22;27405;53.316;-6.294;2023-06-22T04:50:41;16.10;87.20
41720;DHT22;27405;53.316;-6.294;2023-06-22T04:53:07;16.00;87.20
41720;DHT22;27405;53.316;-6.294;2023-06-22T04:55:35;16.10;87.30
41720;DHT22;27405;53.316;-6.294;2023-06-22T04:58:03;16.10;87.40
41720;DHT22;27405;53.316;-6.294;2023-06-22T05:00:30;16.10;87.60
41720;DHT22;27405;53.316;-6.294;2023-06-22T05:02:57;16.20;87.80
41720;DHT22;27405;53.316;-6.294;2023-06-22T05:05:23;16.40;87.70
41720;DHT22;27405;53.316;-6.294;2023-06-22T05:07:51;16.40;87.50
41720;DHT22;27405;53.316;-6.294;2023-06-22T05:10:19;16.50;87.50
41720;DHT22;27405;53.316;-6.294;2023-06-22T05:12:46;16.50;87.40
41720;DHT22;27405;53.316;-6.294;2023-06-22T05:15:11;16.60;87.40
41720;DHT22;27405;53.316;-6.294;2023-06-22T05:17:38;16.70;87.30
41720;DHT22;27405;53.316;-6.294;2023-06-22T05:20:17;16.70;87.20
41720;DHT22;27405;53.316;-6.294;2023-06-22T05:22:43;16.70;87.10
41720;DHT22;27405;53.316;-6.294;2023-06-22T05:25:10;16.80;86.80
41720;DHT22;27405;53.316;-6.294;2023-06-22T05:27:37;16.80;86.70
41720;DHT22;27405;53.316;-6.294;2023-06-22T05:30:09;16.90;86.70
41720;DHT22;27405;53.316;-6.294;2023-06-22T05:32:35;17.00;86.70
41720;DHT22;27405;53.316;-6.294;2023-06-22T05:35:02;17.00;86.50
41720;DHT22;27405;53.316;-6.294;2023-06-22T05:37:28;17.10;86.40
41720;DHT22;27405;53.316;-6.294;2023-06-22T05:39:54;17.10;86.30
41720;DHT22;27405;53.316;-6.294;2023-06-22T05:42:21;17.00;86.30
41720;DHT22;27405;53.316;-6.294;2023-06-22T05:44:47;17.10;86.30
41720;DHT22;27405;53.316;-6.294;2023-06-22T05:47:13;17.00;86.30
41720;DHT22;27405;53.316;-6.294;2023-06-22T05:49:39;17.10;86.70
41720;DHT22;27405;53.316;-6.294;2023-06-22T05:52:04;17.10;87.10
41720;DHT22;27405;53.316;-6.294;2023-06-22T05:54:30;17.10;87.40
41720;DHT22;27405;53.316;-6.294;2023-06-22T05:56:56;17.30;87.90
41720;DHT22;27405;53.316;-6.294;2023-06-22T05:59:22;17.30;88.20
41720;DHT22;27405;53.316;-6.294;2023-06-22T06:01:47;17.40;88.80
41720;DHT22;27405;53.316;-6.294;2023-06-22T06:04:20;17.40;89.40
41720;DHT22;27405;53.316;-6.294;2023-06-22T06:06:45;17.40;89.80
41720;DHT22;27405;53.316;-6.294;2023-06-22T06:09:14;17.40;90.10
41720;DHT22;27405;53.316;-6.294;2023-06-22T06:11:40;17.40;90.60
41720;DHT22;27405;53.316;-6.294;2023-06-22T06:14:06;17.40;90.60
41720;DHT22;27405;53.316;-6.294;2023-06-22T06:16:32;17.50;90.70
41720;DHT22;27405;53.316;-6.294;2023-06-22T06:18:57;17.50;90.90
41720;DHT22;27405;53.316;-6.294;2023-06-22T06:21:24;17.50;91.00
41720;DHT22;27405;53.316;-6.294;2023-06-22T06:23:49;17.50;91.10
41720;DHT22;27405;53.316;-6.294;2023-06-22T06:26:15;17.60;91.30
41720;DHT22;27405;53.316;-6.294;2023-06-22T06:28:53;17.60;91.50
41720;DHT22;27405;53.316;-6.294;2023-06-22T06:31:20;17.70;91.60
41720;DHT22;27405;53.316;-6.294;2023-06-22T06:33:46;17.70;91.80
41720;DHT22;27405;53.316;-6.294;2023-06-22T06:36:11;17.80;91.90
41720;DHT22;27405;53.316;-6.294;2023-06-22T06:38:37;17.90;92.00
41720;DHT22;27405;53.316;-6.294;2023-06-22T06:41:03;18.00;92.00
41720;DHT22;27405;53.316;-6.294;2023-06-22T06:43:28;18.00;92.10
41720;DHT22;27405;53.316;-6.294;2023-06-22T06:45:54;18.00;92.10
41720;DHT22;27405;53.316;-6.294;2023-06-22T06:48:20;18.10;92.10
41720;DHT22;27405;53.316;-6.294;2023-06-22T06:50:45;18.20;92.10
41720;DHT22;27405;53.316;-6.294;2023-06-22T06:53:11;18.30;92.10
41720;DHT22;27405;53.316;-6.294;2023-06-22T06:55:36;18.30;92.00
41720;DHT22;27405;53.316;-6.294;2023-06-22T06:58:03;18.40;92.00
41720;DHT22;27405;53.316;-6.294;2023-06-22T07:00:33;18.30;91.90
41720;DHT22;27405;53.316;-6.294;2023-06-22T07:02:58;18.30;92.00
41720;DHT22;27405;53.316;-6.294;2023-06-22T07:05:24;18.40;92.10
41720;DHT22;27405;53.316;-6.294;2023-06-22T07:07:50;18.30;92.10
41720;DHT22;27405;53.316;-6.294;2023-06-22T07:10:15;18.40;92.10
41720;DHT22;27405;53.316;-6.294;2023-06-22T07:12:41;18.50;92.10
41720;DHT22;27405;53.316;-6.294;2023-06-22T07:15:08;18.50;92.10
41720;DHT22;27405;53.316;-6.294;2023-06-22T07:17:35;18.60;91.90
41720;DHT22;27405;53.316;-6.294;2023-06-22T07:20:02;18.60;91.80
41720;DHT22;27405;53.316;-6.294;2023-06-22T07:22:37;18.70;91.80
41720;DHT22;27405;53.316;-6.294;2023-06-22T07:25:03;18.80;91.70
41720;DHT22;27405;53.316;-6.294;2023-06-22T07:27:38;18.80;91.70
41720;DHT22;27405;53.316;-6.294;2023-06-22T07:30:05;18.80;91.70
41720;DHT22;27405;53.316;-6.294;2023-06-22T07:32:32;18.80;91.60
41720;DHT22;27405;53.316;-6.294;2023-06-22T07:34:58;18.90;91.40
41720;DHT22;27405;53.316;-6.294;2023-06-22T07:37:23;18.90;91.40
41720;DHT22;27405;53.316;-6.294;2023-06-22T07:39:49;19.00;91.30
41720;DHT22;27405;53.316;-6.294;2023-06-22T07:42:19;19.00;91.20
41720;DHT22;27405;53.316;-6.294;2023-06-22T07:44:45;19.10;91.10
41720;DHT22;27405;53.316;-6.294;2023-06-22T07:47:10;19.10;91.10
41720;DHT22;27405;53.316;-6.294;2023-06-22T07:49:36;19.10;91.00
41720;DHT22;27405;53.316;-6.294;2023-06-22T07:52:02;19.10;90.90
41720;DHT22;27405;53.316;-6.294;2023-06-22T07:54:27;19.20;91.00
41720;DHT22;27405;53.316;-6.294;2023-06-22T07:56:53;19.20;90.90
41720;DHT22;27405;53.316;-6.294;2023-06-22T07:59:19;19.20;90.90
41720;DHT22;27405;53.316;-6.294;2023-06-22T08:01:44;19.30;90.80
41720;DHT22;27405;53.316;-6.294;2023-06-22T08:04:10;19.30;90.70
41720;DHT22;27405;53.316;-6.294;2023-06-22T08:06:35;19.40;90.50
41720;DHT22;27405;53.316;-6.294;2023-06-22T08:09:01;19.40;90.40
41720;DHT22;27405;53.316;-6.294;2023-06-22T08:11:27;19.40;90.30
41720;DHT22;27405;53.316;-6.294;2023-06-22T08:13:53;19.50;90.00
41720;DHT22;27405;53.316;-6.294;2023-06-22T08:16:21;19.50;89.80
41720;DHT22;27405;53.316;-6.294;2023-06-22T08:18:47;19.50;89.50
41720;DHT22;27405;53.316;-6.294;2023-06-22T08:21:12;19.50;89.30
41720;DHT22;27405;53.316;-6.294;2023-06-22T08:23:38;19.60;89.00
41720;DHT22;27405;53.316;-6.294;2023-06-22T08:26:04;19.60;88.80
41720;DHT22;27405;53.316;-6.294;2023-06-22T08:28:29;19.70;88.80
41720;DHT22;27405;53.316;-6.294;2023-06-22T08:30:55;19.70;88.60
41720;DHT22;27405;53.316;-6.294;2023-06-22T08:33:21;19.70;88.30
41720;DHT22;27405;53.316;-6.294;2023-06-22T08:35:49;19.80;88.10
41720;DHT22;27405;53.316;-6.294;2023-06-22T08:38:15;19.80;87.90
41720;DHT22;27405;53.316;-6.294;2023-06-22T08:40:41;19.80;87.90
41720;DHT22;27405;53.316;-6.294;2023-06-22T08:43:06;19.90;87.80
41720;DHT22;27405;53.316;-6.294;2023-06-22T08:45:32;19.90;87.20
41720;DHT22;27405;53.316;-6.294;2023-06-22T08:47:58;20.00;87.10
41720;DHT22;27405;53.316;-6.294;2023-06-22T08:50:23;20.00;87.00
41720;DHT22;27405;53.316;-6.294;2023-06-22T08:52:49;20.10;87.00
41720;DHT22;27405;53.316;-6.294;2023-06-22T08:55:15;20.10;86.50
41720;DHT22;27405;53.316;-6.294;2023-06-22T08:57:40;20.20;86.10
41720;DHT22;27405;53.316;-6.294;2023-06-22T09:00:08;20.20;85.70
41720;DHT22;27405;53.316;-6.294;2023-06-22T09:02:52;20.20;85.80
41720;DHT22;27405;53.316;-6.294;2023-06-22T09:05:18;20.20;85.80
41720;DHT22;27405;53.316;-6.294;2023-06-22T09:07:43;20.30;85.60
41720;DHT22;27405;53.316;-6.294;2023-06-22T09:10:09;20.30;85.40
41720;DHT22;27405;53.316;-6.294;2023-06-22T09:12:35;20.40;85.20
41720;DHT22;27405;53.316;-6.294;2023-06-22T09:15:03;20.40;85.00
41720;DHT22;27405;53.316;-6.294;2023-06-22T09:17:29;20.50;84.90
41720;DHT22;27405;53.316;-6.294;2023-06-22T09:19:55;20.50;84.50
41720;DHT22;27405;53.316;-6.294;2023-06-22T09:22:20;20.60;83.80
41720;DHT22;27405;53.316;-6.294;2023-06-22T09:24:46;20.60;83.60
41720;DHT22;27405;53.316;-6.294;2023-06-22T09:27:12;20.60;83.30
41720;DHT22;27405;53.316;-6.294;2023-06-22T09:29:37;20.70;83.00
41720;DHT22;27405;53.316;-6.294;2023-06-22T09:32:03;20.70;83.00
41720;DHT22;27405;53.316;-6.294;2023-06-22T09:34:30;20.70;82.70
41720;DHT22;27405;53.316;-6.294;2023-06-22T09:36:56;20.80;82.40
41720;DHT22;27405;53.316;-6.294;2023-06-22T09:39:22;20.80;82.30
41720;DHT22;27405;53.316;-6.294;2023-06-22T09:41:48;20.80;81.90
41720;DHT22;27405;53.316;-6.294;2023-06-22T09:44:14;20.80;81.80
41720;DHT22;27405;53.316;-6.294;2023-06-22T09:46:39;20.90;81.60
41720;DHT22;27405;53.316;-6.294;2023-06-22T09:49:05;20.90;81.40
41720;DHT22;27405;53.316;-6.294;2023-06-22T09:51:31;21.00;81.40
41720;DHT22;27405;53.316;-6.294;2023-06-22T09:53:56;21.00;81.00
41720;DHT22;27405;53.316;-6.294;2023-06-22T09:56:23;21.00;81.00
41720;DHT22;27405;53.316;-6.294;2023-06-22T09:58:49;21.00;80.50
41720;DHT22;27405;53.316;-6.294;2023-06-22T10:01:18;21.10;80.20
41720;DHT22;27405;53.316;-6.294;2023-06-22T10:03:44;21.10;80.50
41720;DHT22;27405;53.316;-6.294;2023-06-22T10:06:09;21.20;79.80
41720;DHT22;27405;53.316;-6.294;2023-06-22T10:08:35;21.20;79.40
41720;DHT22;27405;53.316;-6.294;2023-06-22T10:11:02;21.20;78.90
41720;DHT22;27405;53.316;-6.294;2023-06-22T10:13:28;21.30;78.90
41720;DHT22;27405;53.316;-6.294;2023-06-22T10:15:53;21.30;78.50
41720;DHT22;27405;53.316;-6.294;2023-06-22T10:18:19;21.30;78.40
41720;DHT22;27405;53.316;-6.294;2023-06-22T10:20:48;21.40;78.20
41720;DHT22;27405;53.316;-6.294;2023-06-22T10:23:14;21.50;77.90
41720;DHT22;27405;53.316;-6.294;2023-06-22T10:25:40;21.50;77.80
41720;DHT22;27405;53.316;-6.294;2023-06-22T10:28:05;21.50;77.70
41720;DHT22;27405;53.316;-6.294;2023-06-22T10:30:31;21.60;77.50
41720;DHT22;27405;53.316;-6.294;2023-06-22T10:32:57;21.60;77.10
41720;DHT22;27405;53.316;-6.294;2023-06-22T10:35:23;21.60;77.20
41720;DHT22;27405;53.316;-6.294;2023-06-22T10:37:48;21.70;77.10
41720;DHT22;27405;53.316;-6.294;2023-06-22T10:40:16;21.70;77.00
41720;DHT22;27405;53.316;-6.294;2023-06-22T10:42:41;21.80;76.80
41720;DHT22;27405;53.316;-6.294;2023-06-22T10:45:08;21.90;76.30
41720;DHT22;27405;53.316;-6.294;2023-06-22T10:47:34;21.90;76.20
41720;DHT22;27405;53.316;-6.294;2023-06-22T10:50:02;21.90;76.00
41720;DHT22;27405;53.316;-6.294;2023-06-22T10:52:27;21.90;75.80
41720;DHT22;27405;53.316;-6.294;2023-06-22T10:54:53;22.00;75.80
41720;DHT22;27405;53.316;-6.294;2023-06-22T10:57:19;21.90;75.50
41720;DHT22;27405;53.316;-6.294;2023-06-22T10:59:44;21.90;75.50
41720;DHT22;27405;53.316;-6.294;2023-06-22T11:02:10;21.90;75.50
41720;DHT22;27405;53.316;-6.294;2023-06-22T11:04:36;21.90;75.50
41720;DHT22;27405;53.316;-6.294;2023-06-22T11:07:02;21.90;76.00
41720;DHT22;27405;53.316;-6.294;2023-06-22T11:09:27;21.90;76.30
41720;DHT22;27405;53.316;-6.294;2023-06-22T11:11:53;22.00;76.70
41720;DHT22;27405;53.316;-6.294;2023-06-22T11:14:19;21.90;76.70
41720;DHT22;27405;53.316;-6.294;2023-06-22T11:16:45;21.90;76.80
41720;DHT22;27405;53.316;-6.294;2023-06-22T11:19:12;21.90;77.10
41720;DHT22;27405;53.316;-6.294;2023-06-22T11:21:37;22.00;77.10
41720;DHT22;27405;53.316;-6.294;2023-06-22T11:24:04;22.00;77.30
41720;DHT22;27405;53.316;-6.294;2023-06-22T11:26:29;22.00;77.70
41720;DHT22;27405;53.316;-6.294;2023-06-22T11:28:57;22.00;78.00
41720;DHT22;27405;53.316;-6.294;2023-06-22T11:31:23;22.10;78.20
41720;DHT22;27405;53.316;-6.294;2023-06-22T11:33:48;22.10;78.20
41720;DHT22;27405;53.316;-6.294;2023-06-22T11:36:14;22.20;78.20
41720;DHT22;27405;53.316;-6.294;2023-06-22T11:38:41;22.20;78.30
41720;DHT22;27405;53.316;-6.294;2023-06-22T11:41:08;22.20;78.60
41720;DHT22;27405;53.316;-6.294;2023-06-22T11:43:34;22.20;78.70
41720;DHT22;27405;53.316;-6.294;2023-06-22T11:46:01;22.20;78.50
41720;DHT22;27405;53.316;-6.294;2023-06-22T11:48:26;22.20;78.40
41720;DHT22;27405;53.316;-6.294;2023-06-22T11:50:52;22.20;78.60
41720;DHT22;27405;53.316;-6.294;2023-06-22T11:53:18;22.20;78.70
41720;DHT22;27405;53.316;-6.294;2023-06-22T11:55:44;22.10;79.00
41720;DHT22;27405;53.316;-6.294;2023-06-22T11:58:10;22.10;79.20
41720;DHT22;27405;53.316;-6.294;2023-06-22T12:00:37;22.20;79.10
41720;DHT22;27405;53.316;-6.294;2023-06-22T12:03:03;22.20;79.00
41720;DHT22;27405;53.316;-6.294;2023-06-22T12:05:29;22.20;78.80
41720;DHT22;27405;53.316;-6.294;2023-06-22T12:07:55;22.10;78.80
41720;DHT22;27405;53.316;-6.294;2023-06-22T12:10:22;22.10;79.00
41720;DHT22;27405;53.316;-6.294;2023-06-22T12:12:48;22.00;79.30
41720;DHT22;27405;53.316;-6.294;2023-06-22T12:15:14;22.00;79.60
41720;DHT22;27405;53.316;-6.294;2023-06-22T12:17:40;22.10;79.80
41720;DHT22;27405;53.316;-6.294;2023-06-22T12:20:06;22.10;79.90
41720;DHT22;27405;53.316;-6.294;2023-06-22T12:22:34;22.10;80.10
41720;DHT22;27405;53.316;-6.294;2023-06-22T12:25:00;22.10;79.90
41720;DHT22;27405;53.316;-6.294;2023-06-22T12:27:26;22.10;80.10
41720;DHT22;27405;53.316;-6.294;2023-06-22T12:29:51;22.20;80.00
41720;DHT22;27405;53.316;-6.294;2023-06-22T12:32:17;22.30;79.90
41720;DHT22;27405;53.316;-6.294;2023-06-22T12:34:43;22.30;79.30
41720;DHT22;27405;53.316;-6.294;2023-06-22T12:37:10;22.40;79.10
41720;DHT22;27405;53.316;-6.294;2023-06-22T12:39:35;22.40;79.20
41720;DHT22;27405;53.316;-6.294;2023-06-22T12:42:01;22.50;78.70
41720;DHT22;27405;53.316;-6.294;2023-06-22T12:44:27;22.50;78.10
41720;DHT22;27405;53.316;-6.294;2023-06-22T12:46:53;22.50;78.00
41720;DHT22;27405;53.316;-6.294;2023-06-22T12:49:18;22.60;78.10
41720;DHT22;27405;53.316;-6.294;2023-06-22T12:51:45;22.70;77.90
41720;DHT22;27405;53.316;-6.294;2023-06-22T12:54:11;22.80;77.50
41720;DHT22;27405;53.316;-6.294;2023-06-22T12:56:37;22.80;76.80
41720;DHT22;27405;53.316;-6.294;2023-06-22T12:59:04;22.90;76.50
41720;DHT22;27405;53.316;-6.294;2023-06-22T13:01:30;22.90;75.80
41720;DHT22;27405;53.316;-6.294;2023-06-22T13:03:56;22.90;75.50
41720;DHT22;27405;53.316;-6.294;2023-06-22T13:06:22;22.90;75.40
41720;DHT22;27405;53.316;-6.294;2023-06-22T13:08:48;23.00;75.40
41720;DHT22;27405;53.316;-6.294;2023-06-22T13:11:13;23.10;75.20
41720;DHT22;27405;53.316;-6.294;2023-06-22T13:13:39;23.10;75.20
41720;DHT22;27405;53.316;-6.294;2023-06-22T13:16:05;23.10;74.90
41720;DHT22;27405;53.316;-6.294;2023-06-22T13:18:31;23.10;74.30
41720;DHT22;27405;53.316;-6.294;2023-06-22T13:20:57;23.10;74.40
41720;DHT22;27405;53.316;-6.294;2023-06-22T13:23:23;23.20;74.70
41720;DHT22;27405;53.316;-6.294;2023-06-22T13:25:49;23.10;75.20
41720;DHT22;27405;53.316;-6.294;2023-06-22T13:28:15;23.10;75.90
41720;DHT22;27405;53.316;-6.294;2023-06-22T13:30:42;23.20;76.40
41720;DHT22;27405;53.316;-6.294;2023-06-22T13:33:08;23.30;76.70
41720;DHT22;27405;53.316;-6.294;2023-06-22T13:35:34;23.30;76.70
41720;DHT22;27405;53.316;-6.294;2023-06-22T13:38:03;23.30;76.70
41720;DHT22;27405;53.316;-6.294;2023-06-22T13:40:29;23.30;76.90
41720;DHT22;27405;53.316;-6.294;2023-06-22T13:42:55;23.40;77.10
41720;DHT22;27405;53.316;-6.294;2023-06-22T13:45:21;23.50;76.60
41720;DHT22;27405;53.316;-6.294;2023-06-22T13:47:47;23.50;76.90
41720;DHT22;27405;53.316;-6.294;2023-06-22T13:50:12;23.60;76.80
41720;DHT22;27405;53.316;-6.294;2023-06-22T13:52:38;23.70;76.30
41720;DHT22;27405;53.316;-6.294;2023-06-22T13:55:05;23.70;76.10
41720;DHT22;27405;53.316;-6.294;2023-06-22T13:57:32;23.70;76.10
41720;DHT22;27405;53.316;-6.294;2023-06-22T13:59:58;23.90;76.20
41720;DHT22;27405;53.316;-6.294;2023-06-22T14:02:25;24.00;75.90
41720;DHT22;27405;53.316;-6.294;2023-06-22T14:04:51;24.10;75.80
41720;DHT22;27405;53.316;-6.294;2023-06-22T14:07:16;24.10;75.70
41720;DHT22;27405;53.316;-6.294;2023-06-22T14:09:42;24.20;75.70
41720;DHT22;27405;53.316;-6.294;2023-06-22T14:12:08;24.30;75.20
41720;DHT22;27405;53.316;-6.294;2023-06-22T14:14:34;24.30;75.10
41720;DHT22;27405;53.316;-6.294;2023-06-22T14:17:00;24.40;75.30
41720;DHT22;27405;53.316;-6.294;2023-06-22T14:19:25;24.50;75.20
41720;DHT22;27405;53.316;-6.294;2023-06-22T14:21:51;24.70;74.80
41720;DHT22;27405;53.316;-6.294;2023-06-22T14:24:17;24.80;74.60
41720;DHT22;27405;53.316;-6.294;2023-06-22T14:26:43;24.90;74.10
41720;DHT22;27405;53.316;-6.294;2023-06-22T14:29:08;25.20;74.00
41720;DHT22;27405;53.316;-6.294;2023-06-22T14:31:34;25.70;73.70
41720;DHT22;27405;53.316;-6.294;2023-06-22T14:34:00;26.30;72.60
41720;DHT22;27405;53.316;-6.294;2023-06-22T14:36:27;26.70;72.00
41720;DHT22;27405;53.316;-6.294;2023-06-22T14:38:53;27.10;71.10
41720;DHT22;27405;53.316;-6.294;2023-06-22T14:41:19;27.50;70.40
41720;DHT22;27405;53.316;-6.294;2023-06-22T14:43:46;27.70;69.50
41720;DHT22;27405;53.316;-6.294;2023-06-22T14:46:12;27.70;68.90
41720;DHT22;27405;53.316;-6.294;2023-06-22T14:48:38;27.50;68.60
41720;DHT22;27405;53.316;-6.294;2023-06-22T14:51:04;27.10;68.50
41720;DHT22;27405;53.316;-6.294;2023-06-22T14:53:30;27.00;69.00
41720;DHT22;27405;53.316;-6.294;2023-06-22T14:55:55;27.10;69.40
41720;DHT22;27405;53.316;-6.294;2023-06-22T14:58:21;27.40;68.90
41720;DHT22;27405;53.316;-6.294;2023-06-22T15:00:47;27.60;68.20
41720;DHT22;27405;53.316;-6.294;2023-06-22T15:03:12;27.60;68.00
41720;DHT22;27405;53.316;-6.294;2023-06-22T15:05:43;27.60;67.30
41720;DHT22;27405;53.316;-6.294;2023-06-22T15:08:09;27.40;67.20
41720;DHT22;27405;53.316;-6.294;2023-06-22T15:10:36;26.90;67.30
41720;DHT22;27405;53.316;-6.294;2023-06-22T15:13:02;26.50;67.90
41720;DHT22;27405;53.316;-6.294;2023-06-22T15:15:28;26.10;68.40
41720;DHT22;27405;53.316;-6.294;2023-06-22T15:17:54;25.70;69.30